Time;durP1;ratioP1;P1;durP2;ratioP2;P2;SDS_P1;SDS_P2;PMS_P1;PMS_P2;Temp;Humidity;BMP_temperature;BMP_pressure;BME280_temperature;BME280_humidity;BME280_pressure;Samples;Min_cycle;Max_cycle;Signal;HPM_P1;HPM_P2
2023/08/23 00:01:17;;;;;;;6.70;3.85;;;30.60;71.80;;;;;;5044789;28;20050;-56
2023/08/23 00:03:42;;;;;;;6.78;3.80;;;30.50;71.90;;;;;;5061257;28;20041;-56
2023/08/23 00:06:08;;;;;;;7.65;4.22;;;30.50;71.90;;;;;;5061268;28;20025;-56
2023/08/23 00:08:33;;;;;;;5.18;3.97;;;30.50;72.00;;;;;;5061337;28;20030;-56
2023/08/23 00:10:59;;;;;;;5.35;3.47;;;30.50;72.10;;;;;;5044951;28;20030;-56
2023/08/23 00:13:24;;;;;;;5.25;3.78;;;30.50;72.20;;;;;;5061083;28;20037;-56
2023/08/23 00:15:50;;;;;;;5.03;3.75;;;30.50;72.20;;;;;;5061552;28;20044;-56
2023/08/23 00:18:16;;;;;;;7.55;4.03;;;30.40;72.20;;;;;;5060791;28;20034;-56
2023/08/23 00:20:41;;;;;;;5.60;4.00;;;30.40;72.20;;;;;;5045696;28;20040;-56
2023/08/23 00:23:07;;;;;;;7.63;3.70;;;30.40;72.30;;;;;;5060711;28;20049;-56
2023/08/23 00:25:32;;;;;;;5.20;4.00;;;30.40;72.30;;;;;;5060734;28;20037;-56
2023/08/23 00:27:58;;;;;;;7.32;3.95;;;30.40;72.40;;;;;;5045722;28;20022;-56
2023/08/23 00:30:24;;;;;;;6.75;4.13;;;30.30;72.50;;;;;;5044273;28;20167;-56
2023/08/23 00:32:49;;;;;;;6.32;3.90;;;30.30;72.60;;;;;;5060654;28;20525;-56
2023/08/23 00:35:15;;;;;;;5.53;3.90;;;30.30;72.60;;;;;;5045284;28;20089;-56
2023/08/23 00:37:40;;;;;;;5.15;3.75;;;30.30;72.60;;;;;;5045251;28;20102;-56
2023/08/23 00:40:08;;;;;;;5.57;3.75;;;30.30;72.70;;;;;;5060562;28;20080;-56
2023/08/23 00:42:34;;;;;;;10.32;3.95;;;30.30;72.70;;;;;;5060521;28;20030;-55
2023/08/23 00:44:59;;;;;;;6.03;4.13;;;30.30;72.70;;;;;;5045406;28;20037;-56
2023/08/23 00:47:25;;;;;;;7.95;3.95;;;30.30;72.80;;;;;;5045097;28;20026;-56
2023/08/23 00:49:50;;;;;;;5.68;3.83;;;30.30;72.90;;;;;;5043852;28;20128;-56
2023/08/23 00:52:16;;;;;;;8.15;3.60;;;30.20;72.80;;;;;;5043907;28;20041;-56
2023/08/23 00:54:41;;;;;;;6.85;3.75;;;30.20;72.80;;;;;;5060432;28;20029;-56
2023/08/23 00:57:07;;;;;;;5.22;3.95;;;30.20;72.90;;;;;;5043795;28;20394;-56
2023/08/23 00:59:35;;;;;;;6.40;3.72;;;30.20;73.00;;;;;;5045272;28;20029;-56
2023/08/23 01:02:00;;;;;;;5.43;3.35;;;30.20;73.00;;;;;;5027311;28;20045;-56
2023/08/23 01:04:26;;;;;;;5.60;3.90;;;30.20;73.20;;;;;;5044896;28;20026;-56
2023/08/23 01:07:09;;;;;;;6.75;3.60;;;30.20;73.20;;;;;;5043044;28;20025;-56
2023/08/23 01:09:47;;;;;;;4.50;3.53;;;30.10;73.20;;;;;;5058258;28;20082;-56
2023/08/23 01:12:29;;;;;;;4.57;3.85;;;30.10;73.30;;;;;;5059975;28;20037;-56
2023/08/23 01:14:56;;;;;;;7.00;4.70;;;30.10;73.30;;;;;;5059889;28;20109;-56
2023/08/23 01:17:21;;;;;;;4.90;3.60;;;30.00;73.30;;;;;;5044770;28;20088;-56
2023/08/23 01:19:48;;;;;;;7.18;3.70;;;30.00;73.40;;;;;;5043190;28;20029;-56
2023/08/23 01:22:18;;;;;;;4.70;3.65;;;30.00;73.50;;;;;;5026891;28;20025;-56
2023/08/23 01:24:44;;;;;;;8.45;3.83;;;30.00;73.60;;;;;;5043652;28;20030;-56
2023/08/23 01:27:09;;;;;;;6.68;4.00;;;30.00;73.70;;;;;;5026788;28;20025;-56
2023/08/23 01:29:35;;;;;;;6.25;4.00;;;30.00;73.70;;;;;;5060076;28;20079;-56
2023/08/23 01:32:31;;;;;;;4.90;3.63;;;30.00;73.80;;;;;;5044564;28;20045;-56
2023/08/23 01:35:01;;;;;;;5.35;4.20;;;29.90;73.70;;;;;;5044750;28;20025;-56
2023/08/23 01:37:26;;;;;;;7.53;3.92;;;29.90;73.90;;;;;;5044773;28;20033;-56
2023/08/23 01:39:52;;;;;;;5.22;3.83;;;29.90;73.90;;;;;;5060010;28;20103;-56
2023/08/23 01:42:18;;;;;;;4.47;3.55;;;29.90;73.90;;;;;;5043045;28;20362;-56
2023/08/23 01:44:44;;;;;;;6.65;4.20;;;29.80;74.00;;;;;;5043388;28;20032;-56
2023/08/23 01:47:09;;;;;;;4.18;3.60;;;29.90;74.10;;;;;;5042737;28;20022;-56
2023/08/23 01:49:35;;;;;;;4.65;3.42;;;29.80;74.00;;;;;;5043219;28;20056;-55
2023/08/23 01:52:00;;;;;;;4.45;3.53;;;29.80;74.10;;;;;;5044735;28;20045;-56
2023/08/23 01:54:26;;;;;;;4.40;3.95;;;29.80;74.20;;;;;;5044377;28;20080;-56
2023/08/23 01:56:52;;;;;;;4.85;3.95;;;29.80;74.30;;;;;;5042822;28;20040;-56
2023/08/23 01:59:17;;;;;;;4.68;3.88;;;29.70;74.30;;;;;;5044437;28;20098;-57
2023/08/23 02:01:43;;;;;;;4.63;3.83;;;29.80;74.40;;;;;;5044220;28;20122;-56
2023/08/23 02:04:08;;;;;;;5.93;3.88;;;29.70;75.10;;;;;;5044319;28;20053;-56
2023/08/23 02:06:34;;;;;;;5.85;3.90;;;29.70;74.50;;;;;;5059645;28;20370;-56
2023/08/23 02:08:59;;;;;;;7.07;4.07;;;29.70;74.50;;;;;;5044338;28;20134;-56
2023/08/23 02:11:25;;;;;;;7.65;3.95;;;29.60;74.60;;;;;;5044200;28;20041;-56
2023/08/23 02:13:50;;;;;;;5.10;3.60;;;29.60;74.60;;;;;;5059404;28;20034;-56
2023/08/23 02:16:16;;;;;;;5.90;3.75;;;29.60;74.60;;;;;;5044308;28;20022;-55
2023/08/23 02:18:41;;;;;;;5.63;3.75;;;29.60;74.70;;;;;;5060977;28;20507;-56
2023/08/23 02:21:07;;;;;;;4.38;3.70;;;29.60;74.70;;;;;;5063310;28;20531;-56
2023/08/23 02:23:32;;;;;;;5.03;3.70;;;29.60;74.80;;;;;;5046674;28;20036;-55
2023/08/23 02:25:58;;;;;;;4.13;3.72;;;29.60;74.90;;;;;;5063027;28;20021;-56
2023/08/23 02:28:24;;;;;;;5.68;3.97;;;29.50;74.90;;;;;;5046702;28;20029;-56
2023/08/23 02:30:49;;;;;;;5.57;3.75;;;29.50;75.00;;;;;;5048027;28;20085;-56
2023/08/23 02:33:15;;;;;;;7.80;4.10;;;29.50;75.00;;;;;;5048116;28;20033;-55
2023/08/23 02:35:43;;;;;;;4.88;4.15;;;29.50;75.10;;;;;;5063173;28;20528;-56
2023/08/23 02:38:09;;;;;;;7.43;4.85;;;29.50;75.20;;;;;;5062674;28;20413;-56
2023/08/23 02:40:34;;;;;;;8.48;3.90;;;29.50;75.20;;;;;;5046071;28;20040;-56
2023/08/23 02:43:00;;;;;;;6.47;3.97;;;29.40;75.30;;;;;;5046094;28;20021;-57
2023/08/23 02:45:25;;;;;;;5.72;4.13;;;29.40;75.40;;;;;;5047058;28;20059;-56
2023/08/23 02:47:51;;;;;;;4.55;3.80;;;29.40;75.40;;;;;;5064951;28;20029;-56
2023/08/23 02:50:17;;;;;;;4.82;3.70;;;29.40;75.40;;;;;;5046829;28;20116;-56
2023/08/23 02:52:42;;;;;;;5.70;4.00;;;29.40;75.60;;;;;;5062759;28;20026;-56
2023/08/23 02:55:08;;;;;;;6.60;4.15;;;29.40;75.70;;;;;;5062702;28;20040;-56
2023/08/23 02:57:33;;;;;;;6.40;3.72;;;29.30;75.60;;;;;;5047276;28;20069;-56
2023/08/23 02:59:59;;;;;;;4.50;3.92;;;29.30;75.80;;;;;;5062963;28;20033;-56
2023/08/23 03:02:24;;;;;;;4.65;3.83;;;29.30;75.80;;;;;;5045802;28;20040;-56
2023/08/23 03:04:50;;;;;;;4.80;3.58;;;29.30;75.80;;;;;;5047185;28;20059;-56
2023/08/23 03:07:15;;;;;;;5.65;4.28;;;29.30;75.80;;;;;;5047089;28;20059;-56
2023/08/23 03:09:41;;;;;;;5.43;4.10;;;29.30;75.80;;;;;;5045651;28;20033;-56
2023/08/23 03:12:06;;;;;;;7.93;4.40;;;29.20;75.70;;;;;;5046983;28;20029;-56
2023/08/23 03:14:32;;;;;;;5.53;4.00;;;29.20;75.80;;;;;;5047039;28;20036;-56
2023/08/23 03:16:57;;;;;;;4.82;3.85;;;29.20;75.90;;;;;;5062426;28;20121;-56
2023/08/23 03:19:23;;;;;;;5.50;4.30;;;29.20;76.00;;;;;;5061761;28;20049;-56
2023/08/23 03:21:48;;;;;;;7.55;4.78;;;29.20;76.00;;;;;;5047008;28;20056;-56
2023/08/23 03:24:14;;;;;;;6.68;4.40;;;29.20;76.00;;;;;;5046650;28;20025;-56
2023/08/23 03:26:39;;;;;;;5.00;4.25;;;29.20;76.00;;;;;;5061986;28;20072;-56
2023/08/23 03:29:05;;;;;;;5.68;4.45;;;29.10;76.00;;;;;;5061334;28;20143;-56
2023/08/23 03:31:30;;;;;;;5.85;4.90;;;29.10;76.10;;;;;;5045172;28;20037;-56
2023/08/23 03:33:56;;;;;;;12.23;5.15;;;29.10;76.10;;;;;;5061864;28;20029;-56
2023/08/23 03:36:22;;;;;;;6.47;4.57;;;29.10;76.20;;;;;;5046358;28;20088;-56
2023/08/23 03:38:47;;;;;;;7.72;5.47;;;29.10;76.30;;;;;;5061665;28;20026;-56
2023/08/23 03:41:14;;;;;;;7.20;4.75;;;29.00;76.30;;;;;;5044903;28;20038;-56
2023/08/23 03:43:39;;;;;;;9.07;5.20;;;29.10;76.40;;;;;;5061622;28;20045;-56
2023/08/23 03:46:05;;;;;;;8.35;4.90;;;29.00;76.40;;;;;;5046473;28;20124;-56
2023/08/23 03:48:30;;;;;;;10.05;5.72;;;29.00;76.40;;;;;;5046103;28;20033;-56
2023/08/23 03:50:59;;;;;;;6.82;5.13;;;29.00;76.50;;;;;;5061748;28;20040;-56
2023/08/23 03:53:25;;;;;;;10.30;5.38;;;29.00;76.60;;;;;;5061492;28;20441;-56
2023/08/23 03:55:52;;;;;;;8.07;5.55;;;29.00;76.60;;;;;;5028233;28;20037;-56
2023/08/23 03:58:17;;;;;;;7.18;5.20;;;28.90;76.70;;;;;;5061486;28;20035;-56
2023/08/23 04:00:49;;;;;;;7.63;5.35;;;29.00;76.80;;;;;;5061537;28;20033;-56
2023/08/23 04:03:14;;;;;;;9.85;5.70;;;28.90;76.80;;;;;;5061369;28;20097;-56
2023/08/23 04:05:40;;;;;;;11.70;5.45;;;28.90;76.80;;;;;;5046172;28;20026;-56
2023/08/23 04:08:06;;;;;;;9.18;5.13;;;28.90;76.90;;;;;;5061318;28;20021;-56
2023/08/23 04:10:32;;;;;;;7.20;5.50;;;28.90;77.00;;;;;;5061322;28;20033;-56
2023/08/23 04:12:57;;;;;;;11.40;5.68;;;28.90;77.00;;;;;;5044636;28;20029;-56
2023/08/23 04:15:23;;;;;;;12.13;5.35;;;28.80;77.00;;;;;;5061279;28;20338;-56
2023/08/23 04:17:48;;;;;;;11.18;5.05;;;28.80;77.10;;;;;;5044069;28;20022;-56
2023/08/23 04:20:15;;;;;;;11.02;6.05;;;28.80;77.10;;;;;;5061076;28;20038;-56
2023/08/23 04:22:40;;;;;;;10.15;5.10;;;28.80;77.10;;;;;;5044152;28;20029;-56
2023/08/23 04:25:06;;;;;;;9.05;5.30;;;28.80;77.20;;;;;;5045669;28;20047;-56
2023/08/23 04:27:32;;;;;;;8.25;5.35;;;28.70;77.20;;;;;;5060659;28;20053;-57
2023/08/23 04:29:57;;;;;;;9.98;5.53;;;28.70;77.30;;;;;;5045536;28;20022;-56
2023/08/23 04:32:23;;;;;;;11.50;5.32;;;28.70;77.40;;;;;;5044348;28;20033;-56
2023/08/23 04:34:49;;;;;;;9.27;5.47;;;28.70;77.40;;;;;;5044637;28;20059;-56
2023/08/23 04:37:14;;;;;;;11.38;5.50;;;28.70;77.50;;;;;;5044209;28;20038;-56
2023/08/23 04:39:40;;;;;;;9.73;5.53;;;28.70;77.60;;;;;;5042516;28;20025;-56
2023/08/23 04:42:05;;;;;;;11.82;5.50;;;28.70;77.60;;;;;;5044795;28;20025;-56
2023/08/23 04:44:31;;;;;;;11.48;5.63;;;28.60;77.60;;;;;;5043980;28;20061;-56
2023/08/23 04:46:58;;;;;;;9.13;5.45;;;28.60;77.60;;;;;;5045288;28;20021;-56
2023/08/23 04:49:23;;;;;;;8.02;5.05;;;28.60;77.60;;;;;;5045207;28;20029;-56
2023/08/23 04:51:49;;;;;;;12.27;5.25;;;28.60;77.70;;;;;;5043927;28;20026;-56
2023/08/23 04:54:15;;;;;;;8.90;4.90;;;28.60;77.70;;;;;;5045343;28;20059;-56
2023/08/23 04:56:40;;;;;;;11.50;4.78;;;28.60;77.80;;;;;;5043972;28;20181;-56
2023/08/23 04:59:06;;;;;;;12.10;5.30;;;28.60;77.80;;;;;;5045002;28;20481;-56
2023/08/23 05:01:31;;;;;;;6.15;4.78;;;28.60;77.80;;;;;;5043919;28;20568;-56
2023/08/23 05:03:57;;;;;;;8.27;4.97;;;28.60;77.90;;;;;;5045375;28;20474;-56
2023/08/23 05:06:22;;;;;;;7.10;4.60;;;28.60;77.80;;;;;;5044879;28;20033;-56
2023/08/23 05:08:48;;;;;;;8.20;4.90;;;28.50;77.80;;;;;;5044935;28;20072;-56
2023/08/23 05:11:13;;;;;;;7.20;4.80;;;28.50;77.80;;;;;;5044954;28;20030;-56
2023/08/23 05:13:39;;;;;;;21.55;6.00;;;28.50;77.90;;;;;;5043160;28;20068;-56
2023/08/23 05:16:04;;;;;;;41.10;7.82;;;28.50;78.60;;;;;;5043603;28;20076;-56
2023/08/23 05:18:30;;;;;;;49.15;10.10;;;28.50;78.00;;;;;;5043325;28;20049;-56
2023/08/23 05:20:57;;;;;;;57.78;10.05;;;28.50;78.10;;;;;;5026679;28;20061;-56
2023/08/23 05:23:23;;;;;;;114.55;13.73;;;28.50;78.30;;;;;;5043379;28;20036;-56
2023/08/23 05:25:50;;;;;;;55.60;9.90;;;28.40;78.30;;;;;;5043396;28;20030;-56
2023/08/23 05:28:19;;;;;;;51.40;9.40;;;28.40;78.30;;;;;;5043292;28;20025;-56
2023/08/23 05:30:45;;;;;;;52.72;9.43;;;28.50;78.50;;;;;;5044431;28;20037;-56
2023/08/23 05:33:11;;;;;;;54.05;9.57;;;28.40;78.40;;;;;;5027053;28;20083;-57
2023/08/23 05:35:37;;;;;;;54.30;10.82;;;28.40;78.60;;;;;;5043240;28;20059;-56
2023/08/23 05:38:02;;;;;;;54.28;10.05;;;28.40;78.80;;;;;;5042896;28;20463;-56
2023/08/23 05:40:28;;;;;;;50.65;10.32;;;28.40;78.80;;;;;;5044487;28;20045;-56
2023/08/23 05:42:53;;;;;;;64.95;11.57;;;28.40;78.70;;;;;;5044539;28;20045;-56
2023/08/23 05:45:20;;;;;;;46.53;9.85;;;28.40;78.80;;;;;;5043227;28;20413;-56
2023/08/23 05:47:46;;;;;;;57.53;10.57;;;28.40;78.70;;;;;;5043123;28;20092;-56
2023/08/23 05:50:11;;;;;;;56.47;11.88;;;28.40;78.70;;;;;;5043100;28;20076;-56
2023/08/23 05:52:37;;;;;;;49.50;10.80;;;28.40;78.80;;;;;;5046524;28;20022;-56
2023/08/23 05:55:03;;;;;;;47.85;10.85;;;28.30;78.70;;;;;;5047501;28;20041;-56
2023/08/23 05:57:28;;;;;;;61.88;11.55;;;28.30;78.70;;;;;;5048613;28;20044;-56
2023/08/23 05:59:54;;;;;;;33.60;9.75;;;28.30;78.90;;;;;;5044643;28;20163;-55
2023/08/23 06:02:19;;;;;;;59.25;11.88;;;28.30;78.90;;;;;;5043250;28;20044;-55
2023/08/23 06:04:45;;;;;;;40.47;10.18;;;28.30;79.10;;;;;;5046560;28;20053;-55
2023/08/23 06:07:10;;;;;;;48.55;10.88;;;28.30;79.10;;;;;;5045312;28;20033;-55
2023/08/23 06:09:37;;;;;;;33.17;8.50;;;28.30;79.10;;;;;;5046835;28;20029;-55
2023/08/23 06:12:03;;;;;;;33.45;9.27;;;28.30;79.20;;;;;;5046335;28;20105;-55
2023/08/23 06:14:29;;;;;;;42.30;9.45;;;28.20;79.20;;;;;;5046111;28;20037;-55
2023/08/23 06:16:55;;;;;;;42.70;9.73;;;28.20;79.20;;;;;;5047637;28;20036;-55
2023/08/23 06:19:20;;;;;;;35.55;8.80;;;28.30;79.40;;;;;;5046497;28;20037;-55
2023/08/23 06:21:46;;;;;;;31.45;8.13;;;28.30;79.40;;;;;;5046814;28;20029;-54
2023/08/23 06:24:11;;;;;;;28.73;8.82;;;28.20;79.30;;;;;;5058255;28;20038;-54
2023/08/23 06:26:37;;;;;;;30.35;7.97;;;28.20;79.40;;;;;;5060171;28;20326;-55
2023/08/23 06:29:03;;;;;;;24.13;7.88;;;28.20;79.50;;;;;;5038340;28;20053;-55
2023/08/23 06:31:29;;;;;;;27.15;7.32;;;28.20;79.50;;;;;;5051696;28;20029;-55
2023/08/23 06:33:55;;;;;;;17.50;6.53;;;28.20;79.60;;;;;;5044686;28;20029;-55
2023/08/23 06:36:20;;;;;;;29.85;7.82;;;28.20;79.60;;;;;;5060541;28;20029;-55
2023/08/23 06:38:47;;;;;;;24.45;7.20;;;28.20;79.60;;;;;;5050156;28;20093;-55
2023/08/23 06:41:12;;;;;;;30.67;7.10;;;28.20;79.70;;;;;;5041183;28;20044;-55
2023/08/23 06:43:38;;;;;;;16.33;5.93;;;28.20;79.70;;;;;;5044029;28;20434;-55
2023/08/23 06:46:03;;;;;;;28.75;6.95;;;28.20;80.00;;;;;;5027040;28;20025;-55
2023/08/23 06:48:29;;;;;;;27.17;6.97;;;28.20;79.90;;;;;;5047925;28;20037;-54
2023/08/23 06:50:55;;;;;;;22.27;6.30;;;28.20;80.10;;;;;;5047663;28;20068;-53
2023/08/23 06:53:21;;;;;;;32.65;7.22;;;28.20;80.10;;;;;;5044934;28;20029;-55
2023/08/23 06:55:46;;;;;;;24.08;7.00;;;28.20;80.10;;;;;;5026113;28;20026;-55
2023/08/23 06:58:12;;;;;;;35.90;7.43;;;28.10;80.20;;;;;;5043607;28;20123;-55
2023/08/23 07:00:37;;;;;;;54.75;9.95;;;28.20;80.40;;;;;;5042893;28;20043;-55
2023/08/23 07:03:03;;;;;;;47.28;8.82;;;28.10;81.30;;;;;;5043715;28;20030;-55
2023/08/23 07:05:29;;;;;;;50.83;9.05;;;28.10;82.00;;;;;;5045082;28;20029;-55
2023/08/23 07:07:54;;;;;;;66.45;9.55;;;28.20;81.80;;;;;;5041744;28;20026;-55
2023/08/23 07:10:20;;;;;;;31.50;7.57;;;28.10;82.20;;;;;;5042624;28;20354;-55
2023/08/23 07:12:45;;;;;;;46.40;9.20;;;28.10;81.80;;;;;;5042858;28;20034;-54
2023/08/23 07:15:11;;;;;;;45.03;9.23;;;28.00;81.50;;;;;;5044334;28;20040;-55
2023/08/23 07:17:36;;;;;;;48.72;9.40;;;28.00;81.50;;;;;;5044577;28;20037;-55
2023/08/23 07:20:06;;;;;;;50.80;9.73;;;28.00;81.40;;;;;;5045312;28;20063;-55
2023/08/23 07:22:31;;;;;;;62.92;10.63;;;28.10;81.40;;;;;;5049063;28;20109;-55
2023/08/23 07:24:57;;;;;;;53.90;10.43;;;28.10;81.40;;;;;;5058946;28;20036;-54
2023/08/23 07:27:23;;;;;;;68.70;11.60;;;28.10;81.30;;;;;;5037674;28;20049;-55
2023/08/23 07:29:54;;;;;;;71.15;11.02;;;28.10;81.60;;;;;;5045934;28;20034;-55
2023/08/23 07:32:20;;;;;;;76.03;12.80;;;28.10;81.50;;;;;;5053456;28;20034;-55
2023/08/23 07:34:45;;;;;;;61.53;12.30;;;28.10;81.50;;;;;;5040517;28;20094;-55
2023/08/23 07:37:14;;;;;;;88.07;12.45;;;28.10;81.70;;;;;;5044504;28;20124;-55
2023/08/23 07:39:39;;;;;;;72.30;11.60;;;28.20;81.90;;;;;;5045439;28;20039;-55
2023/08/23 07:42:05;;;;;;;75.43;13.32;;;28.10;81.90;;;;;;5045344;28;20049;-55
2023/08/23 07:44:31;;;;;;;69.38;11.40;;;28.10;82.00;;;;;;5048462;28;20029;-55
2023/08/23 07:46:56;;;;;;;72.30;11.77;;;28.10;82.00;;;;;;5055635;28;20029;-55
2023/08/23 07:49:22;;;;;;;68.90;11.73;;;28.10;82.40;;;;;;5044277;28;20017;-55
2023/08/23 07:51:48;;;;;;;83.45;11.50;;;28.10;82.30;;;;;;5043916;28;20211;-55
2023/08/23 07:54:13;;;;;;;61.85;11.60;;;28.10;82.40;;;;;;5038212;28;20029;-55
2023/08/23 07:56:39;;;;;;;65.80;11.13;;;28.10;82.50;;;;;;5046157;28;20109;-55
2023/08/23 07:59:05;;;;;;;58.92;11.25;;;28.10;82.50;;;;;;5047679;28;20029;-55
2023/08/23 08:01:30;;;;;;;57.20;10.23;;;28.10;82.40;;;;;;5043577;28;20034;-57
2023/08/23 08:03:56;;;;;;;48.67;10.23;;;28.10;82.50;;;;;;5042719;28;20397;-55
2023/08/23 08:06:22;;;;;;;66.47;11.63;;;28.10;82.60;;;;;;5051718;28;20505;-55
2023/08/23 08:08:47;;;;;;;65.72;11.80;;;28.10;82.60;;;;;;5052001;28;20032;-55
2023/08/23 08:11:14;;;;;;;52.97;10.63;;;28.10;82.80;;;;;;5034714;28;20120;-55
2023/08/23 08:13:39;;;;;;;59.80;10.82;;;28.10;82.70;;;;;;5051793;28;20149;-55
2023/08/23 08:16:06;;;;;;;64.25;10.57;;;28.10;83.10;;;;;;5041955;28;20109;-55
2023/08/23 08:18:32;;;;;;;62.42;11.30;;;28.10;82.90;;;;;;5035657;28;20101;-55
2023/08/23 08:20:59;;;;;;;65.25;11.20;;;28.10;83.20;;;;;;5023479;28;20061;-55
2023/08/23 08:23:25;;;;;;;43.50;9.13;;;28.10;83.30;;;;;;5038948;28;20029;-55
2023/08/23 08:25:50;;;;;;;72.10;10.95;;;28.10;82.90;;;;;;5044047;28;20021;-55
2023/08/23 08:28:16;;;;;;;67.65;11.00;;;28.10;83.10;;;;;;5041495;28;20096;-55
2023/08/23 08:30:41;;;;;;;69.22;9.88;;;28.10;83.10;;;;;;5038298;28;20167;-55
2023/08/23 08:33:07;;;;;;;61.58;10.68;;;28.10;83.10;;;;;;5043458;28;20033;-55
2023/08/23 08:35:33;;;;;;;66.20;10.45;;;28.20;83.00;;;;;;5033582;28;20052;-55
2023/08/23 08:37:59;;;;;;;43.70;10.00;;;28.10;82.80;;;;;;5045681;28;20025;-55
2023/08/23 08:40:24;;;;;;;42.90;8.85;;;28.20;83.00;;;;;;5043948;28;20164;-55
2023/08/23 08:42:50;;;;;;;51.38;9.10;;;28.20;83.00;;;;;;5043119;28;20080;-54
2023/08/23 08:45:16;;;;;;;56.78;9.15;;;28.10;83.00;;;;;;5041635;28;20560;-55
2023/08/23 08:47:42;;;;;;;36.80;8.48;;;28.10;83.20;;;;;;5039014;28;20025;-55
2023/08/23 08:50:08;;;;;;;36.45;9.07;;;28.10;83.10;;;;;;5041115;28;20025;-55
2023/08/23 08:52:33;;;;;;;36.25;8.93;;;28.10;83.10;;;;;;5041628;28;20029;-55
2023/08/23 08:54:59;;;;;;;51.60;9.07;;;28.10;83.10;;;;;;5041471;28;20051;-55
2023/08/23 08:57:25;;;;;;;42.42;9.45;;;28.10;83.20;;;;;;5035394;28;20465;-55
2023/08/23 08:59:51;;;;;;;37.97;9.30;;;28.20;83.60;;;;;;5022512;28;20080;-55
2023/08/23 09:02:18;;;;;;;50.40;9.85;;;28.10;83.50;;;;;;5022261;28;20029;-55
2023/08/23 09:04:46;;;;;;;36.92;8.88;;;28.20;83.50;;;;;;5051569;28;20115;-55
2023/08/23 09:07:13;;;;;;;38.67;8.60;;;28.20;83.60;;;;;;5029867;28;20475;-55
2023/08/23 09:09:38;;;;;;;35.65;8.43;;;28.20;83.60;;;;;;5032723;28;20052;-55
2023/08/23 09:12:04;;;;;;;41.95;9.25;;;28.20;83.50;;;;;;5030635;28;20059;-55
2023/08/23 09:14:30;;;;;;;45.03;8.43;;;28.20;83.60;;;;;;5064994;28;20373;-55
2023/08/23 09:16:55;;;;;;;33.58;8.35;;;28.20;83.30;;;;;;5045818;28;20045;-57
2023/08/23 09:19:21;;;;;;;34.75;9.27;;;28.30;83.50;;;;;;5063969;28;20063;-57
2023/08/23 09:21:49;;;;;;;40.47;8.60;;;28.30;83.50;;;;;;5046813;28;20033;-54
2023/08/23 09:24:14;;;;;;;50.75;9.00;;;28.30;83.50;;;;;;5061468;28;20111;-56
2023/08/23 09:26:40;;;;;;;43.88;8.70;;;28.30;83.50;;;;;;5050786;28;20061;-57
2023/08/23 09:29:05;;;;;;;44.67;8.65;;;28.40;83.40;;;;;;5044045;28;20051;-57
2023/08/23 09:31:31;;;;;;;31.75;8.45;;;28.30;83.30;;;;;;5059357;28;20037;-54
2023/08/23 09:33:58;;;;;;;38.50;8.85;;;28.40;83.30;;;;;;5054613;28;20038;-54
2023/08/23 09:36:28;;;;;;;48.67;9.48;;;28.40;83.30;;;;;;5042722;28;20489;-57
2023/08/23 09:38:54;;;;;;;42.47;9.18;;;28.40;83.40;;;;;;5042777;28;20029;-55
2023/08/23 09:41:21;;;;;;;40.67;8.90;;;28.50;83.40;;;;;;5041355;28;20045;-55
2023/08/23 09:43:47;;;;;;;44.65;9.70;;;28.50;83.30;;;;;;5026356;28;20055;-55
2023/08/23 09:46:13;;;;;;;46.05;10.35;;;28.50;83.30;;;;;;5031493;28;20475;-55
2023/08/23 09:48:38;;;;;;;50.08;9.65;;;28.60;83.40;;;;;;5048354;28;20044;-54
2023/08/23 09:51:04;;;;;;;62.22;10.45;;;28.60;83.40;;;;;;5059152;28;20083;-55
2023/08/23 09:53:33;;;;;;;43.95;9.82;;;28.60;83.30;;;;;;5041596;28;20080;-56
2023/08/23 09:56:00;;;;;;;42.72;10.25;;;28.60;83.30;;;;;;5041932;28;20061;-55
2023/08/23 09:58:25;;;;;;;54.58;10.43;;;28.60;83.30;;;;;;5041903;28;20041;-55
2023/08/23 10:00:51;;;;;;;62.85;12.88;;;28.70;83.20;;;;;;5050571;28;20047;-55
2023/08/23 10:03:18;;;;;;;39.05;9.57;;;28.70;83.00;;;;;;5025909;28;20018;-55
2023/08/23 10:05:43;;;;;;;32.80;9.65;;;28.70;83.20;;;;;;5041799;28;20032;-55
2023/08/23 10:08:09;;;;;;;42.28;9.00;;;28.70;83.20;;;;;;5040812;28;20029;-55
2023/08/23 10:10:34;;;;;;;35.28;9.05;;;28.70;83.10;;;;;;5044530;28;20033;-55
2023/08/23 10:13:04;;;;;;;35.47;9.73;;;28.80;83.10;;;;;;5040937;28;20102;-55
2023/08/23 10:15:34;;;;;;;37.35;8.80;;;28.80;83.00;;;;;;5009148;28;20045;-55
2023/08/23 10:18:01;;;;;;;36.08;8.55;;;28.80;82.90;;;;;;5041633;28;20045;-56
2023/08/23 10:20:26;;;;;;;32.40;9.00;;;28.80;83.50;;;;;;5028890;28;20038;-55
2023/08/23 10:22:54;;;;;;;34.85;8.35;;;28.80;82.70;;;;;;5046075;28;20030;-55
2023/08/23 10:25:20;;;;;;;29.88;8.30;;;28.90;82.60;;;;;;5026141;28;20038;-56
2023/08/23 10:27:46;;;;;;;39.28;8.82;;;29.00;82.50;;;;;;5043671;28;20029;-56
2023/08/23 10:30:25;;;;;;;39.83;9.00;;;29.00;82.30;;;;;;5041682;28;20060;-55
2023/08/23 10:32:52;;;;;;;27.05;8.57;;;29.00;82.20;;;;;;5046007;28;20037;-55
2023/08/23 10:35:32;;;;;;;29.23;8.43;;;29.10;82.10;;;;;;5058537;28;20029;-55
2023/08/23 10:37:58;;;;;;;26.23;8.63;;;29.10;82.00;;;;;;5046579;28;20449;-55
2023/08/23 10:40:27;;;;;;;32.50;8.35;;;29.20;82.10;;;;;;5048221;28;20025;-56
2023/08/23 10:42:53;;;;;;;38.40;8.63;;;29.20;82.00;;;;;;5049855;28;20026;-55
2023/08/23 10:45:18;;;;;;;30.48;8.15;;;29.20;81.80;;;;;;5053873;28;20032;-56
2023/08/23 10:47:44;;;;;;;25.27;8.70;;;29.30;81.80;;;;;;5053629;28;20029;-55
2023/08/23 10:50:10;;;;;;;32.90;7.85;;;29.30;81.60;;;;;;5039685;28;20370;-56
2023/08/23 10:52:36;;;;;;;36.28;8.32;;;29.30;81.60;;;;;;5031630;28;20025;-56
2023/08/23 10:55:02;;;;;;;24.55;7.90;;;29.40;81.60;;;;;;5058331;28;20060;-56
2023/08/23 10:57:27;;;;;;;26.67;7.63;;;29.40;81.40;;;;;;5052783;28;20025;-56
2023/08/23 10:59:53;;;;;;;26.98;7.78;;;29.50;81.30;;;;;;5051198;28;20043;-56
2023/08/23 11:02:18;;;;;;;24.55;8.27;;;29.50;81.20;;;;;;5051718;28;20052;-55
2023/08/23 11:04:44;;;;;;;29.48;7.45;;;29.50;80.90;;;;;;5031190;28;20083;-56
2023/08/23 11:07:11;;;;;;;18.35;7.20;;;29.60;80.80;;;;;;5045527;28;20034;-56
2023/08/23 11:09:36;;;;;;;23.58;6.78;;;29.70;80.60;;;;;;5066097;28;20021;-56
2023/08/23 11:12:04;;;;;;;26.05;7.75;;;29.70;80.40;;;;;;5053211;28;20450;-56
2023/08/23 11:14:29;;;;;;;20.02;7.32;;;29.80;80.40;;;;;;5050805;28;20052;-56
2023/08/23 11:16:55;;;;;;;13.77;7.03;;;29.80;80.10;;;;;;5054215;28;20033;-55
2023/08/23 11:19:21;;;;;;;26.33;7.75;;;29.80;79.70;;;;;;5056807;28;20021;-55
2023/08/23 11:21:46;;;;;;;23.70;7.72;;;29.90;79.70;;;;;;5046581;28;20032;-55
2023/08/23 11:24:12;;;;;;;33.05;7.78;;;30.00;79.40;;;;;;5045326;28;20036;-55
2023/08/23 11:26:37;;;;;;;26.48;7.82;;;30.00;79.00;;;;;;5058978;28;20131;-55
2023/08/23 11:29:04;;;;;;;25.15;6.85;;;30.10;78.80;;;;;;5043910;28;20025;-55
2023/08/23 11:31:31;;;;;;;16.50;6.90;;;30.20;78.30;;;;;;5052322;28;20041;-55
2023/08/23 11:33:58;;;;;;;24.17;6.95;;;30.20;78.00;;;;;;5045721;28;20056;-55
2023/08/23 11:36:24;;;;;;;18.58;6.35;;;30.40;77.90;;;;;;5041062;28;20056;-56
2023/08/23 11:38:50;;;;;;;26.48;7.93;;;30.30;77.30;;;;;;5044025;28;20081;-55
2023/08/23 11:41:26;;;;;;;24.08;6.82;;;30.50;77.10;;;;;;5031501;28;20036;-55
2023/08/23 11:43:52;;;;;;;21.70;6.88;;;30.50;77.30;;;;;;5057476;28;20441;-54
2023/08/23 11:46:18;;;;;;;35.03;7.38;;;30.60;76.60;;;;;;5042631;28;20089;-55
2023/08/23 11:48:43;;;;;;;19.65;6.45;;;30.70;76.60;;;;;;5041777;28;20112;-55
2023/08/23 11:51:09;;;;;;;25.05;6.93;;;30.70;76.20;;;;;;5028988;28;20033;-55
2023/08/23 11:53:34;;;;;;;31.17;7.18;;;30.80;76.00;;;;;;5037978;28;20071;-55
2023/08/23 11:56:00;;;;;;;29.75;7.07;;;30.80;75.50;;;;;;5042477;28;20149;-56
2023/08/23 11:58:26;;;;;;;21.70;6.47;;;30.90;75.30;;;;;;5041106;28;20048;-56
2023/08/23 12:00:51;;;;;;;24.33;6.45;;;31.00;75.30;;;;;;5042807;28;20029;-56
2023/08/23 12:03:17;;;;;;;31.88;6.65;;;31.00;75.10;;;;;;5051291;28;20025;-55
2023/08/23 12:05:42;;;;;;;23.75;6.78;;;31.00;74.80;;;;;;5048727;28;20350;-56
2023/08/23 12:08:08;;;;;;;27.02;6.65;;;31.00;74.50;;;;;;5043921;28;20037;-55
2023/08/23 12:10:33;;;;;;;22.05;5.97;;;31.10;74.40;;;;;;5038032;28;20041;-56
2023/08/23 12:12:59;;;;;;;17.55;6.03;;;31.20;75.00;;;;;;5037903;28;20032;-56
2023/08/23 12:15:25;;;;;;;20.27;5.78;;;31.30;74.70;;;;;;5040704;28;20033;-55
2023/08/23 12:17:53;;;;;;;17.88;6.18;;;31.30;73.60;;;;;;5036540;28;20040;-55
2023/08/23 12:20:19;;;;;;;33.92;6.53;;;31.30;73.90;;;;;;5033297;28;20025;-56
2023/08/23 12:22:45;;;;;;;16.98;5.97;;;31.50;73.50;;;;;;5039781;28;20323;-56
2023/08/23 12:25:11;;;;;;;17.85;5.40;;;31.50;72.70;;;;;;5041671;28;20095;-55
2023/08/23 12:27:36;;;;;;;30.80;6.57;;;31.60;72.80;;;;;;5033054;28;20029;-55
2023/08/23 12:30:03;;;;;;;35.20;6.43;;;31.70;72.50;;;;;;5042074;28;20060;-56
2023/08/23 12:32:28;;;;;;;24.90;6.50;;;31.70;72.20;;;;;;5043395;28;20044;-56